createdAt,value
2024-03-16T00:01:59.655Z,9.30
2024-03-16T00:04:27.695Z,9.29
2024-03-16T00:06:57.141Z,9.30
2024-03-16T00:09:25.918Z,9.29
2024-03-16T00:11:54.641Z,9.28
2024-03-16T00:14:22.590Z,9.28
2024-03-16T00:16:50.697Z,9.27
2024-03-16T00:19:19.472Z,9.29
2024-03-16T00:21:47.856Z,9.30
2024-03-16T00:24:16.458Z,9.33
2024-03-16T00:26:44.615Z,9.36
2024-03-16T00:29:12.759Z,9.39
2024-03-16T00:31:41.065Z,9.44
2024-03-16T00:34:09.790Z,9.48
2024-03-16T00:36:38.265Z,9.53
2024-03-16T00:39:16.199Z,9.58
2024-03-16T00:41:44.563Z,9.61
2024-03-16T00:44:13.001Z,9.63
2024-03-16T00:46:40.956Z,9.64
2024-03-16T00:49:09.547Z,9.64
2024-03-16T00:51:37.587Z,9.67
2024-03-16T00:54:05.551Z,9.70
2024-03-16T00:56:33.516Z,9.71
2024-03-16T00:59:01.680Z,9.72
2024-03-16T01:01:35.004Z,9.73
2024-03-16T01:04:03.845Z,9.74
2024-03-16T01:06:31.928Z,9.77
2024-03-16T01:09:00.195Z,9.79
2024-03-16T01:11:28.757Z,9.80
2024-03-16T01:13:56.771Z,9.81
2024-03-16T01:16:24.750Z,9.81
2024-03-16T01:18:52.812Z,9.83
2024-03-16T01:21:21.322Z,9.83
2024-03-16T01:23:49.810Z,9.82
2024-03-16T01:26:17.866Z,9.82
2024-03-16T01:28:46.729Z,9.82
2024-03-16T01:31:15.335Z,9.82
2024-03-16T01:33:43.529Z,9.82
2024-03-16T01:36:11.625Z,9.82
2024-03-16T01:38:39.779Z,9.82
2024-03-16T01:41:07.745Z,9.81
2024-03-16T01:43:36.000Z,9.81
2024-03-16T01:46:04.029Z,9.81
2024-03-16T01:48:32.558Z,9.80
2024-03-16T01:51:01.150Z,9.79
2024-03-16T01:53:29.105Z,9.78
2024-03-16T01:55:57.050Z,9.74
2024-03-16T01:58:25.120Z,9.71
2024-03-16T02:00:54.676Z,9.69
2024-03-16T02:03:23.311Z,9.65
2024-03-16T02:05:51.329Z,9.61
2024-03-16T02:08:19.310Z,9.58
2024-03-16T02:10:47.391Z,9.53
2024-03-16T02:13:15.596Z,9.51
2024-03-16T02:15:43.772Z,9.47
2024-03-16T02:18:12.166Z,9.42
2024-03-16T02:20:40.192Z,9.37
2024-03-16T02:23:08.121Z,9.31
2024-03-16T02:25:36.561Z,9.26
2024-03-16T02:28:04.760Z,9.21
2024-03-16T02:30:32.966Z,9.16
2024-03-16T02:33:01.471Z,9.11
2024-03-16T02:35:28.514Z,9.07
2024-03-16T02:37:56.429Z,9.05
2024-03-16T02:40:24.386Z,9.03
2024-03-16T02:42:52.360Z,9.03
2024-03-16T02:45:20.348Z,9.03
2024-03-16T02:47:48.301Z,9.01
2024-03-16T02:50:16.292Z,8.94
2024-03-16T02:52:44.310Z,8.91
2024-03-16T02:55:12.817Z,8.88
2024-03-16T02:57:40.918Z,8.84
2024-03-16T03:00:12.425Z,8.78
2024-03-16T03:02:40.820Z,8.74
2024-03-16T03:05:12.572Z,8.70
2024-03-16T03:07:41.385Z,8.64
2024-03-16T03:10:10.166Z,8.61
2024-03-16T03:12:40.187Z,8.56
2024-03-16T03:15:10.399Z,8.50
2024-03-16T03:17:38.637Z,8.46
2024-03-16T03:20:10.212Z,8.42
2024-03-16T03:22:38.550Z,8.38
2024-03-16T03:25:06.922Z,8.33
2024-03-16T03:27:36.213Z,8.30
2024-03-16T03:30:05.220Z,8.24
2024-03-16T03:32:34.117Z,8.19
2024-03-16T03:35:02.764Z,8.14
2024-03-16T03:37:30.699Z,8.10
2024-03-16T03:39:59.128Z,8.08
2024-03-16T03:42:30.387Z,8.04
2024-03-16T03:45:12.362Z,8.02
2024-03-16T03:47:51.538Z,7.98
2024-03-16T03:50:27.776Z,7.96
2024-03-16T03:52:56.992Z,7.94
2024-03-16T03:55:24.978Z,7.92
2024-03-16T03:57:55.425Z,7.91
2024-03-16T04:00:23.968Z,7.89
2024-03-16T04:02:52.146Z,7.87
2024-03-16T04:05:20.040Z,7.86
2024-03-16T04:07:47.982Z,7.85
2024-03-16T04:10:16.257Z,7.81
2024-03-16T04:12:44.326Z,7.80
2024-03-16T04:15:12.338Z,7.77
2024-03-16T04:17:39.361Z,7.77
2024-03-16T04:20:11.556Z,7.77
2024-03-16T04:22:39.609Z,7.75
2024-03-16T04:25:10.155Z,7.75
2024-03-16T04:27:38.392Z,7.75
2024-03-16T04:30:07.547Z,7.75
2024-03-16T04:32:36.289Z,7.73
2024-03-16T04:35:05.890Z,7.75
2024-03-16T04:37:34.864Z,7.77
2024-03-16T04:40:05.089Z,7.79
2024-03-16T04:42:33.438Z,7.79
2024-03-16T04:45:01.910Z,7.80
2024-03-16T04:47:30.012Z,7.81
2024-03-16T04:49:58.620Z,7.82
2024-03-16T04:52:26.571Z,7.82
2024-03-16T04:54:54.593Z,7.83
2024-03-16T04:57:23.408Z,7.84
2024-03-16T04:59:51.395Z,7.84
2024-03-16T05:02:19.378Z,7.85
2024-03-16T05:04:47.341Z,7.85
2024-03-16T05:07:15.404Z,7.86
2024-03-16T05:09:43.503Z,7.84
2024-03-16T05:12:11.496Z,7.84
2024-03-16T05:14:39.479Z,7.84
2024-03-16T05:17:07.488Z,7.83
2024-03-16T05:19:35.390Z,7.83
2024-03-16T05:22:06.632Z,7.81
2024-03-16T05:24:34.883Z,7.80
2024-03-16T05:27:03.307Z,7.79
2024-03-16T05:29:31.246Z,7.78
2024-03-16T05:31:59.913Z,7.77
2024-03-16T05:34:27.820Z,7.77
2024-03-16T05:36:55.832Z,7.78
2024-03-16T05:39:23.759Z,7.78
2024-03-16T05:41:51.748Z,7.80
2024-03-16T05:44:19.734Z,7.81
2024-03-16T05:46:47.683Z,7.81
2024-03-16T05:49:16.090Z,7.83
2024-03-16T05:51:44.408Z,7.84
2024-03-16T05:54:12.939Z,7.87
2024-03-16T05:56:41.044Z,7.91
2024-03-16T05:59:10.665Z,7.96
2024-03-16T06:01:39.069Z,8.01
2024-03-16T06:04:07.456Z,8.06
2024-03-16T06:06:35.535Z,8.09
2024-03-16T06:09:06.702Z,8.13
2024-03-16T06:11:37.200Z,8.16
2024-03-16T06:14:05.727Z,8.20
2024-03-16T06:16:33.832Z,8.25
2024-03-16T06:19:01.890Z,8.30
2024-03-16T06:21:30.249Z,8.36
2024-03-16T06:23:58.281Z,8.39
2024-03-16T06:26:29.427Z,8.45
2024-03-16T06:29:06.423Z,8.50
2024-03-16T06:31:36.761Z,8.54
2024-03-16T06:34:06.410Z,8.57
2024-03-16T06:36:34.905Z,8.62
2024-03-16T06:39:07.215Z,8.65
2024-03-16T06:41:35.374Z,8.69
2024-03-16T06:44:03.843Z,8.72
2024-03-16T06:46:33.425Z,8.75
2024-03-16T06:49:07.172Z,8.80
2024-03-16T06:51:36.112Z,8.85
2024-03-16T06:54:05.068Z,8.88
2024-03-16T06:56:33.096Z,8.93
2024-03-16T06:59:01.831Z,8.98
2024-03-16T07:01:30.049Z,9.01
2024-03-16T07:03:58.288Z,9.04
2024-03-16T07:06:26.240Z,9.08
2024-03-16T07:08:54.209Z,9.12
2024-03-16T07:11:22.242Z,9.16
2024-03-16T07:13:50.228Z,9.21
2024-03-16T07:16:18.215Z,9.23
2024-03-16T07:18:46.315Z,9.30
2024-03-16T07:21:16.912Z,9.37
2024-03-16T07:23:48.228Z,9.46
2024-03-16T07:26:16.602Z,9.55
2024-03-16T07:28:47.812Z,9.69
2024-03-16T07:31:15.855Z,9.82
2024-03-16T07:33:43.949Z,9.96
2024-03-16T07:36:11.957Z,10.07
2024-03-16T07:38:39.933Z,10.22
2024-03-16T07:41:09.364Z,10.35
2024-03-16T07:43:37.384Z,10.44
2024-03-16T07:46:06.738Z,10.52
2024-03-16T07:48:36.945Z,10.58
2024-03-16T07:51:05.864Z,10.65
2024-03-16T07:53:33.881Z,10.75
2024-03-16T07:56:01.941Z,10.89
2024-03-16T07:58:29.968Z,10.97
2024-03-16T08:00:57.970Z,11.08
2024-03-16T08:03:26.989Z,11.15
2024-03-16T08:05:55.622Z,11.19
2024-03-16T08:08:24.473Z,11.22
2024-03-16T08:10:55.152Z,11.25
2024-03-16T08:13:24.281Z,11.26
2024-03-16T08:15:53.400Z,11.27
2024-03-16T08:18:21.725Z,11.28
2024-03-16T08:20:49.664Z,11.29
2024-03-16T08:23:20.112Z,11.31
2024-03-16T08:25:49.995Z,11.33
2024-03-16T08:28:18.066Z,11.34
2024-03-16T08:30:46.188Z,11.37
2024-03-16T08:33:14.440Z,11.41
2024-03-16T08:35:42.708Z,11.47
2024-03-16T08:38:10.695Z,11.49
2024-03-16T08:40:38.842Z,11.52
2024-03-16T08:43:08.690Z,11.57
2024-03-16T08:45:37.261Z,11.57
2024-03-16T08:48:06.060Z,11.59
2024-03-16T08:50:34.352Z,11.63
2024-03-16T08:53:02.354Z,11.62
2024-03-16T08:55:30.404Z,11.64
2024-03-16T08:57:58.542Z,11.68
2024-03-16T09:00:26.796Z,11.73
2024-03-16T09:02:54.781Z,11.77
2024-03-16T09:05:23.117Z,11.82
2024-03-16T09:07:51.137Z,11.86
2024-03-16T09:10:19.589Z,11.90
2024-03-16T09:12:48.238Z,11.93
2024-03-16T09:15:17.461Z,11.94
2024-03-16T09:17:45.538Z,11.94
2024-03-16T09:20:14.871Z,11.98
2024-03-16T09:22:43.314Z,12.04
2024-03-16T09:25:12.724Z,12.09
2024-03-16T09:27:41.241Z,12.15
2024-03-16T09:30:12.735Z,12.26
2024-03-16T09:32:41.851Z,12.34
2024-03-16T09:35:11.923Z,12.42
2024-03-16T09:37:40.276Z,12.46
2024-03-16T09:40:11.751Z,12.46
2024-03-16T09:42:40.407Z,12.44
